sensor_id;sensor_type;location;lat;lon;timestamp;pressure;altitude;pressure_sealevel;temperature;humidity
63881;BME280;50046;46.672;11.152;2022-08-30T00:00:18;98315.28;;;21.71;70.66
63881;BME280;50046;46.672;11.152;2022-08-30T00:00:52;98312.19;;;21.73;70.41
63881;BME280;50046;46.672;11.152;2022-08-30T00:01:19;98311.06;;;21.74;70.15
63881;BME280;50046;46.672;11.152;2022-08-30T00:01:33;98309.91;;;21.75;70.14
63881;BME280;50046;46.672;11.152;2022-08-30T00:01:44;98305.22;;;21.75;70.33
63881;BME280;50046;46.672;11.152;2022-08-30T00:01:54;98311.19;;;21.77;70.32
63881;BME280;50046;46.672;11.152;2022-08-30T00:02:05;98306.19;;;21.79;70.22
63881;BME280;50046;46.672;11.152;2022-08-30T00:02:15;98310.53;;;21.80;70.46
63881;BME280;50046;46.672;11.152;2022-08-30T00:02:26;98311.38;;;21.81;70.20
63881;BME280;50046;46.672;11.152;2022-08-30T00:02:36;98312.97;;;21.82;70.23
63881;BME280;50046;46.672;11.152;2022-08-30T00:02:47;98309.06;;;21.83;70.32
63881;BME280;50046;46.672;11.152;2022-08-30T00:02:58;98307.94;;;21.84;70.10
63881;BME280;50046;46.672;11.152;2022-08-30T00:03:11;98305.19;;;21.84;70.29
63881;BME280;50046;46.672;11.152;2022-08-30T00:03:23;98307.59;;;21.85;70.11
63881;BME280;50046;46.672;11.152;2022-08-30T00:03:42;98303.72;;;21.86;69.77
63881;BME280;50046;46.672;11.152;2022-08-30T00:03:56;98307.59;;;21.85;69.81
63881;BME280;50046;46.672;11.152;2022-08-30T00:04:07;98310.03;;;21.87;69.82
63881;BME280;50046;46.672;11.152;2022-08-30T00:04:17;98301.47;;;21.88;69.40
63881;BME280;50046;46.672;11.152;2022-08-30T00:04:28;98307.59;;;21.85;69.37
63881;BME280;50046;46.672;11.152;2022-08-30T00:04:38;98303.72;;;21.86;69.48
63881;BME280;50046;46.672;11.152;2022-08-30T00:04:49;98306.47;;;21.86;69.49
63881;BME280;50046;46.672;11.152;2022-08-30T00:04:59;98301.78;;;21.87;69.31
63881;BME280;50046;46.672;11.152;2022-08-30T00:05:10;98303.72;;;21.86;69.52
63881;BME280;50046;46.672;11.152;2022-08-30T00:05:22;98304.53;;;21.87;69.18
63881;BME280;50046;46.672;11.152;2022-08-30T00:05:34;98304.22;;;21.88;69.62
63881;BME280;50046;46.672;11.152;2022-08-30T00:05:45;98304.53;;;21.87;69.35
63881;BME280;50046;46.672;11.152;2022-08-30T00:05:55;98302.94;;;21.86;69.33
63881;BME280;50046;46.672;11.152;2022-08-30T00:06:07;98296.59;;;21.85;69.43
63881;BME280;50046;46.672;11.152;2022-08-30T00:06:18;98304.53;;;21.87;69.02
63881;BME280;50046;46.672;11.152;2022-08-30T00:06:30;98305.34;;;21.87;69.39
63881;BME280;50046;46.672;11.152;2022-08-30T00:06:40;98304.22;;;21.88;68.97
63881;BME280;50046;46.672;11.152;2022-08-30T00:06:51;98306.13;;;21.88;69.43
63881;BME280;50046;46.672;11.152;2022-08-30T00:07:01;98311.63;;;21.88;69.38
63881;BME280;50046;46.672;11.152;2022-08-30T00:07:13;98301.78;;;21.87;69.56
63881;BME280;50046;46.672;11.152;2022-08-30T00:07:23;98304.84;;;21.85;69.25
63881;BME280;50046;46.672;11.152;2022-08-30T00:07:34;98307.59;;;21.85;69.44
63881;BME280;50046;46.672;11.152;2022-08-30T00:07:45;98304.84;;;21.85;69.36
63881;BME280;50046;46.672;11.152;2022-08-30T00:07:56;98298.56;;;21.85;69.43
63881;BME280;50046;46.672;11.152;2022-08-30T00:08:07;98304.41;;;21.83;69.26
63881;BME280;50046;46.672;11.152;2022-08-30T00:08:17;98310.69;;;21.84;69.38
63881;BME280;50046;46.672;11.152;2022-08-30T00:08:28;98302.09;;;21.85;69.54
63881;BME280;50046;46.672;11.152;2022-08-30T00:08:38;98305.69;;;21.86;69.24
63881;BME280;50046;46.672;11.152;2022-08-30T00:08:50;98306.47;;;21.86;69.53
63881;BME280;50046;46.672;11.152;2022-08-30T00:09:01;98299.34;;;21.85;69.10
63881;BME280;50046;46.672;11.152;2022-08-30T00:09:11;98303.72;;;21.86;69.54
63881;BME280;50046;46.672;11.152;2022-08-30T00:09:22;98300.19;;;21.86;69.10
63881;BME280;50046;46.672;11.152;2022-08-30T00:09:33;98306.13;;;21.88;69.38
63881;BME280;50046;46.672;11.152;2022-08-30T00:09:43;98307.28;;;21.87;69.31
63881;BME280;50046;46.672;11.152;2022-08-30T00:09:53;98302.59;;;21.87;69.52
63881;BME280;50046;46.672;11.152;2022-08-30T00:10:04;98302.94;;;21.86;69.26
63881;BME280;50046;46.672;11.152;2022-08-30T00:10:15;98312.78;;;21.87;69.14
63881;BME280;50046;46.672;11.152;2022-08-30T00:10:27;98302.25;;;21.89;69.26
63881;BME280;50046;46.672;11.152;2022-08-30T00:10:42;98303.72;;;21.86;69.43
63881;BME280;50046;46.672;11.152;2022-08-30T00:10:53;98306.97;;;21.88;69.54
63881;BME280;50046;46.672;11.152;2022-08-30T00:11:06;98306.47;;;21.86;69.33
63881;BME280;50046;46.672;11.152;2022-08-30T00:11:20;98307.16;;;21.83;69.23
63881;BME280;50046;46.672;11.152;2022-08-30T00:11:31;98298.06;;;21.83;69.50
63881;BME280;50046;46.672;11.152;2022-08-30T00:11:42;98307.47;;;21.82;69.53
63881;BME280;50046;46.672;11.152;2022-08-30T00:11:52;98308.44;;;21.77;69.29
63881;BME280;50046;46.672;11.152;2022-08-30T00:12:03;98300.88;;;21.74;69.67
63881;BME280;50046;46.672;11.152;2022-08-30T00:12:13;98304.78;;;21.73;69.59
63881;BME280;50046;46.672;11.152;2022-08-30T00:12:24;98307.03;;;21.71;69.96
63881;BME280;50046;46.672;11.152;2022-08-30T00:12:35;98301.38;;;21.67;70.17
63881;BME280;50046;46.672;11.152;2022-08-30T00:12:46;98310.91;;;21.70;70.03
63881;BME280;50046;46.672;11.152;2022-08-30T00:12:58;98305.41;;;21.70;69.57
63881;BME280;50046;46.672;11.152;2022-08-30T00:13:09;98310.44;;;21.68;69.69
63881;BME280;50046;46.672;11.152;2022-08-30T00:13:21;98307.69;;;21.68;70.11
63881;BME280;50046;46.672;11.152;2022-08-30T00:13:32;98303.00;;;21.68;69.99
63881;BME280;50046;46.672;11.152;2022-08-30T00:13:44;98323.69;;;21.66;69.92
63881;BME280;50046;46.672;11.152;2022-08-30T00:13:57;98310.63;;;21.63;70.42
63881;BME280;50046;46.672;11.152;2022-08-30T00:14:08;98314.19;;;21.63;70.63
63881;BME280;50046;46.672;11.152;2022-08-30T00:14:18;98311.25;;;21.60;70.15
63881;BME280;50046;46.672;11.152;2022-08-30T00:14:29;98315.16;;;21.59;70.57
63881;BME280;50046;46.672;11.152;2022-08-30T00:14:39;98306.13;;;21.58;70.40
63881;BME280;50046;46.672;11.152;2022-08-30T00:14:51;98306.44;;;21.57;70.30
63881;BME280;50046;46.672;11.152;2022-08-30T00:15:03;98314.69;;;21.57;70.69
63881;BME280;50046;46.672;11.152;2022-08-30T00:15:17;98313.56;;;21.58;70.40
63881;BME280;50046;46.672;11.152;2022-08-30T00:15:27;98311.94;;;21.57;70.69
63881;BME280;50046;46.672;11.152;2022-08-30T00:15:40;98315.47;;;21.57;70.61
63881;BME280;50046;46.672;11.152;2022-08-30T00:15:51;98312.72;;;21.57;70.83
63881;BME280;50046;46.672;11.152;2022-08-30T00:16:01;98311.59;;;21.58;70.81
63881;BME280;50046;46.672;11.152;2022-08-30T00:16:13;98309.66;;;21.59;70.48
63881;BME280;50046;46.672;11.152;2022-08-30T00:16:24;98312.09;;;21.60;70.38
63881;BME280;50046;46.672;11.152;2022-08-30T00:16:35;98314.50;;;21.62;70.36
63881;BME280;50046;46.672;11.152;2022-08-30T00:16:46;98312.53;;;21.62;70.32
63881;BME280;50046;46.672;11.152;2022-08-30T00:16:56;98314.97;;;21.64;70.26
63881;BME280;50046;46.672;11.152;2022-08-30T00:17:07;98309.00;;;21.62;70.59
63881;BME280;50046;46.672;11.152;2022-08-30T00:17:17;98315.63;;;21.61;70.44
63881;BME280;50046;46.672;11.152;2022-08-30T00:17:28;98312.53;;;21.62;70.19
63881;BME280;50046;46.672;11.152;2022-08-30T00:17:39;98314.50;;;21.62;70.30
63881;BME280;50046;46.672;11.152;2022-08-30T00:17:50;98315.16;;;21.59;70.38
63881;BME280;50046;46.672;11.152;2022-08-30T00:18:00;98314.34;;;21.58;70.20
63881;BME280;50046;46.672;11.152;2022-08-30T00:18:11;98319.84;;;21.58;70.17
63881;BME280;50046;46.672;11.152;2022-08-30T00:18:22;98320.66;;;21.59;70.46
63881;BME280;50046;46.672;11.152;2022-08-30T00:18:34;98316.75;;;21.60;70.46
63881;BME280;50046;46.672;11.152;2022-08-30T00:18:44;98317.91;;;21.59;70.42
63881;BME280;50046;46.672;11.152;2022-08-30T00:18:55;98319.06;;;21.58;70.77
63881;BME280;50046;46.672;11.152;2022-08-30T00:19:06;98317.41;;;21.57;70.30
63881;BME280;50046;46.672;11.152;2022-08-30T00:19:16;98316.13;;;21.54;70.77
63881;BME280;50046;46.672;11.152;2022-08-30T00:19:26;98315.81;;;21.56;70.29
63881;BME280;50046;46.672;11.152;2022-08-30T00:19:37;98315.81;;;21.56;70.63
63881;BME280;50046;46.672;11.152;2022-08-30T00:19:47;98316.78;;;21.51;70.22
63881;BME280;50046;46.672;11.152;2022-08-30T00:19:58;98315.19;;;21.50;70.75
63881;BME280;50046;46.672;11.152;2022-08-30T00:20:12;98319.06;;;21.49;70.85
63881;BME280;50046;46.672;11.152;2022-08-30T00:20:26;98309.53;;;21.46;71.05
63881;BME280;50046;46.672;11.152;2022-08-30T00:20:37;98309.22;;;21.48;70.91
63881;BME280;50046;46.672;11.152;2022-08-30T00:20:49;98313.09;;;21.47;70.95
63881;BME280;50046;46.672;11.152;2022-08-30T00:21:00;98317.13;;;21.49;71.24
63881;BME280;50046;46.672;11.152;2022-08-30T00:21:12;98320.88;;;21.45;71.09
63881;BME280;50046;46.672;11.152;2022-08-30T00:21:22;98320.88;;;21.45;71.25
63881;BME280;50046;46.672;11.152;2022-08-30T00:21:33;98309.41;;;21.43;70.91
63881;BME280;50046;46.672;11.152;2022-08-30T00:21:43;98315.56;;;21.40;71.22
63881;BME280;50046;46.672;11.152;2022-08-30T00:21:53;98315.03;;;21.38;71.27
63881;BME280;50046;46.672;11.152;2022-08-30T00:22:04;98314.72;;;21.39;71.63
63881;BME280;50046;46.672;11.152;2022-08-30T00:22:16;98312.28;;;21.38;71.68
63881;BME280;50046;46.672;11.152;2022-08-30T00:22:26;98310.66;;;21.37;71.28
63881;BME280;50046;46.672;11.152;2022-08-30T00:22:37;98316.97;;;21.37;71.31
63881;BME280;50046;46.672;11.152;2022-08-30T00:22:47;98318.91;;;21.37;71.59
63881;BME280;50046;46.672;11.152;2022-08-30T00:22:59;98317.47;;;21.39;71.70
63881;BME280;50046;46.672;11.152;2022-08-30T00:23:10;98317.78;;;21.38;71.61
63881;BME280;50046;46.672;11.152;2022-08-30T00:23:21;98316.97;;;21.37;71.14
63881;BME280;50046;46.672;11.152;2022-08-30T00:23:32;98316.00;;;21.33;71.39
63881;BME280;50046;46.672;11.152;2022-08-30T00:23:42;98317.28;;;21.36;71.36
63881;BME280;50046;46.672;11.152;2022-08-30T00:23:53;98315.34;;;21.36;71.24
63881;BME280;50046;46.672;11.152;2022-08-30T00:24:03;98320.34;;;21.34;71.21
63881;BME280;50046;46.672;11.152;2022-08-30T00:24:14;98318.28;;;21.31;71.74
63881;BME280;50046;46.672;11.152;2022-08-30T00:24:24;98313.13;;;21.30;71.71
63881;BME280;50046;46.672;11.152;2022-08-30T00:24:35;98316.19;;;21.28;71.67
63881;BME280;50046;46.672;11.152;2022-08-30T00:24:45;98318.13;;;21.27;71.67
63881;BME280;50046;46.672;11.152;2022-08-30T00:24:56;98312.28;;;21.29;71.88
63881;BME280;50046;46.672;11.152;2022-08-30T00:25:07;98313.75;;;21.26;71.88
63881;BME280;50046;46.672;11.152;2022-08-30T00:25:18;98316.50;;;21.26;72.17
63881;BME280;50046;46.672;11.152;2022-08-30T00:25:28;98316.03;;;21.24;72.03
63881;BME280;50046;46.672;11.152;2022-08-30T00:25:40;98318.28;;;21.22;72.18
63881;BME280;50046;46.672;11.152;2022-08-30T00:25:51;98314.41;;;21.23;71.85
63881;BME280;50046;46.672;11.152;2022-08-30T00:26:02;98316.34;;;21.23;72.04
63881;BME280;50046;46.672;11.152;2022-08-30T00:26:13;98310.56;;;21.24;72.21
63881;BME280;50046;46.672;11.152;2022-08-30T00:26:24;98318.44;;;21.26;72.28
63881;BME280;50046;46.672;11.152;2022-08-30T00:26:34;98319.72;;;21.28;72.27
63881;BME280;50046;46.672;11.152;2022-08-30T00:26:44;98310.38;;;21.30;71.98
63881;BME280;50046;46.672;11.152;2022-08-30T00:26:55;98312.28;;;21.29;71.97
63881;BME280;50046;46.672;11.152;2022-08-30T00:27:05;98315.38;;;21.27;72.37
63881;BME280;50046;46.672;11.152;2022-08-30T00:27:16;98313.91;;;21.30;72.37
63881;BME280;50046;46.672;11.152;2022-08-30T00:27:27;98315.88;;;21.30;72.32
63881;BME280;50046;46.672;11.152;2022-08-30T00:27:37;98318.28;;;21.31;71.96
63881;BME280;50046;46.672;11.152;2022-08-30T00:27:48;98316.31;;;21.32;72.06
63881;BME280;50046;46.672;11.152;2022-08-30T00:27:58;98318.28;;;21.31;71.95
63881;BME280;50046;46.672;11.152;2022-08-30T00:28:10;98319.41;;;21.30;71.82
63881;BME280;50046;46.672;11.152;2022-08-30T00:28:21;98321.00;;;21.31;71.98
63881;BME280;50046;46.672;11.152;2022-08-30T00:28:32;98318.75;;;21.33;72.17
63881;BME280;50046;46.672;11.152;2022-08-30T00:28:46;98317.16;;;21.41;71.89
63881;BME280;50046;46.672;11.152;2022-08-30T00:28:56;98315.34;;;21.54;71.41
63881;BME280;50046;46.672;11.152;2022-08-30T00:29:07;98317.78;;;21.46;70.87
63881;BME280;50046;46.672;11.152;2022-08-30T00:29:18;98320.03;;;21.44;71.55
63881;BME280;50046;46.672;11.152;2022-08-30T00:29:28;98318.44;;;21.43;71.72
63881;BME280;50046;46.672;11.152;2022-08-30T00:29:39;98321.50;;;21.42;71.58
63881;BME280;50046;46.672;11.152;2022-08-30T00:29:50;98322.16;;;21.39;71.89
63881;BME280;50046;46.672;11.152;2022-08-30T00:30:01;98318.09;;;21.36;72.00
63881;BME280;50046;46.672;11.152;2022-08-30T00:30:14;98319.72;;;21.37;72.45
63881;BME280;50046;46.672;11.152;2022-08-30T00:30:25;98320.53;;;21.38;72.07
63881;BME280;50046;46.672;11.152;2022-08-30T00:30:36;98321.03;;;21.40;72.26
63881;BME280;50046;46.672;11.152;2022-08-30T00:30:47;98319.91;;;21.41;72.00
63881;BME280;50046;46.672;11.152;2022-08-30T00:31:04;98324.91;;;21.39;72.15
63881;BME280;50046;46.672;11.152;2022-08-30T00:31:15;98322.97;;;21.39;72.01
63881;BME280;50046;46.672;11.152;2022-08-30T00:31:25;98315.88;;;21.38;72.20
63881;BME280;50046;46.672;11.152;2022-08-30T00:31:35;98319.59;;;21.42;72.01
63881;BME280;50046;46.672;11.152;2022-08-30T00:31:46;98319.59;;;21.42;72.10
63881;BME280;50046;46.672;11.152;2022-08-30T00:31:56;98320.38;;;21.43;72.02
63881;BME280;50046;46.672;11.152;2022-08-30T00:32:07;98319.25;;;21.44;71.86
63881;BME280;50046;46.672;11.152;2022-08-30T00:32:17;98321.66;;;21.45;72.06
63881;BME280;50046;46.672;11.152;2022-08-30T00:32:30;98316.19;;;21.45;71.98
63881;BME280;50046;46.672;11.152;2022-08-30T00:32:41;98317.78;;;21.46;72.09
63881;BME280;50046;46.672;11.152;2022-08-30T00:32:52;98315.81;;;21.47;71.83
63881;BME280;50046;46.672;11.152;2022-08-30T00:33:03;98319.41;;;21.47;71.94
63881;BME280;50046;46.672;11.152;2022-08-30T00:33:14;98318.56;;;21.47;71.82
63881;BME280;50046;46.672;11.152;2022-08-30T00:33:24;98320.53;;;21.46;72.03
63881;BME280;50046;46.672;11.152;2022-08-30T00:33:35;98322.16;;;21.47;72.22
63881;BME280;50046;46.672;11.152;2022-08-30T00:33:45;98322.16;;;21.47;71.93
63881;BME280;50046;46.672;11.152;2022-08-30T00:33:56;98318.91;;;21.45;71.83
63881;BME280;50046;46.672;11.152;2022-08-30T00:34:06;98317.28;;;21.44;71.76
63881;BME280;50046;46.672;11.152;2022-08-30T00:34:17;98321.97;;;21.44;72.03
63881;BME280;50046;46.672;11.152;2022-08-30T00:34:27;98322.34;;;21.42;71.91
63881;BME280;50046;46.672;11.152;2022-08-30T00:34:38;98323.94;;;21.43;72.00
63881;BME280;50046;46.672;11.152;2022-08-30T00:34:50;98322.34;;;21.42;71.86
63881;BME280;50046;46.672;11.152;2022-08-30T00:35:02;98318.91;;;21.45;71.99
63881;BME280;50046;46.672;11.152;2022-08-30T00:35:15;98321.66;;;21.45;71.76
63881;BME280;50046;46.672;11.152;2022-08-30T00:35:25;98316.97;;;21.46;72.09
63881;BME280;50046;46.672;11.152;2022-08-30T00:35:36;98316.84;;;21.42;72.21
63881;BME280;50046;46.672;11.152;2022-08-30T00:35:49;98320.38;;;21.43;71.99
63881;BME280;50046;46.672;11.152;2022-08-30T00:35:59;98317.63;;;21.43;71.90
63881;BME280;50046;46.672;11.152;2022-08-30T00:36:10;98317.16;;;21.41;72.03
63881;BME280;50046;46.672;11.152;2022-08-30T00:36:20;98320.38;;;21.43;71.92
63881;BME280;50046;46.672;11.152;2022-08-30T00:36:30;98317.63;;;21.43;71.98
63881;BME280;50046;46.672;11.152;2022-08-30T00:36:44;98320.53;;;21.46;71.87
63881;BME280;50046;46.672;11.152;2022-08-30T00:36:55;98316.19;;;21.45;71.75
63881;BME280;50046;46.672;11.152;2022-08-30T00:37:06;98322.78;;;21.44;72.00
63881;BME280;50046;46.672;11.152;2022-08-30T00:37:17;98315.22;;;21.41;71.86
63881;BME280;50046;46.672;11.152;2022-08-30T00:37:28;98312.47;;;21.41;71.80
63881;BME280;50046;46.672;11.152;2022-08-30T00:37:38;98312.63;;;21.45;71.91
63881;BME280;50046;46.672;11.152;2022-08-30T00:37:49;98314.22;;;21.46;71.91
63881;BME280;50046;46.672;11.152;2022-08-30T00:38:00;98321.31;;;21.47;71.80
63881;BME280;50046;46.672;11.152;2022-08-30T00:38:11;98316.19;;;21.45;71.55
63881;BME280;50046;46.672;11.152;2022-08-30T00:38:22;98312.63;;;21.45;71.75
63881;BME280;50046;46.672;11.152;2022-08-30T00:38:33;98311.34;;;21.42;71.94
63881;BME280;50046;46.672;11.152;2022-08-30T00:38:43;98315.22;;;21.41;71.67
63881;BME280;50046;46.672;11.152;2022-08-30T00:38:54;98317.94;;;21.41;72.10
63881;BME280;50046;46.672;11.152;2022-08-30T00:39:04;98305.03;;;21.42;71.89
63881;BME280;50046;46.672;11.152;2022-08-30T00:39:15;98319.91;;;21.41;71.74
63881;BME280;50046;46.672;11.152;2022-08-30T00:39:25;98315.22;;;21.41;71.97
63881;BME280;50046;46.672;11.152;2022-08-30T00:39:36;98310.50;;;21.42;72.08
63881;BME280;50046;46.672;11.152;2022-08-30T00:39:47;98310.50;;;21.42;72.03
63881;BME280;50046;46.672;11.152;2022-08-30T00:39:57;98313.75;;;21.44;71.79
63881;BME280;50046;46.672;11.152;2022-08-30T00:40:09;98314.09;;;21.42;72.12
63881;BME280;50046;46.672;11.152;2022-08-30T00:40:21;98311.34;;;21.42;71.78
63881;BME280;50046;46.672;11.152;2022-08-30T00:40:32;98316.84;;;21.42;71.96
63881;BME280;50046;46.672;11.152;2022-08-30T00:40:43;98316.84;;;21.42;72.20
63881;BME280;50046;46.672;11.152;2022-08-30T00:40:54;98312.13;;;21.43;71.86
63881;BME280;50046;46.672;11.152;2022-08-30T00:41:04;98314.53;;;21.44;71.92
63881;BME280;50046;46.672;11.152;2022-08-30T00:41:16;98312.28;;;21.46;71.95
63881;BME280;50046;46.672;11.152;2022-08-30T00:41:26;98313.09;;;21.47;72.11
63881;BME280;50046;46.672;11.152;2022-08-30T00:41:37;98309.22;;;21.48;71.66
63881;BME280;50046;46.672;11.152;2022-08-30T00:41:47;98315.81;;;21.47;71.77
63881;BME280;50046;46.672;11.152;2022-08-30T00:41:58;98304.84;;;21.47;72.01
63881;BME280;50046;46.672;11.152;2022-08-30T00:42:08;98313.09;;;21.47;71.87
63881;BME280;50046;46.672;11.152;2022-08-30T00:42:19;98308.72;;;21.46;71.79
63881;BME280;50046;46.672;11.152;2022-08-30T00:42:31;98318.44;;;21.43;71.93
63881;BME280;50046;46.672;11.152;2022-08-30T00:42:43;98312.94;;;21.43;71.72
63881;BME280;50046;46.672;11.152;2022-08-30T00:42:55;98312.94;;;21.43;72.13
63881;BME280;50046;46.672;11.152;2022-08-30T00:43:20;98315.38;;;21.45;71.59
63881;BME280;50046;46.672;11.152;2022-08-30T00:43:33;98316.97;;;21.46;71.76
63881;BME280;50046;46.672;11.152;2022-08-30T00:43:45;98314.38;;;21.49;71.95
63881;BME280;50046;46.672;11.152;2022-08-30T00:43:55;98315.66;;;21.52;71.46
63881;BME280;50046;46.672;11.152;2022-08-30T00:44:06;98319.69;;;21.55;71.12
63881;BME280;50046;46.672;11.152;2022-08-30T00:44:17;98319.69;;;21.55;70.63
63881;BME280;50046;46.672;11.152;2022-08-30T00:44:27;98315.81;;;21.56;71.08
63881;BME280;50046;46.672;11.152;2022-08-30T00:44:39;98320.50;;;21.55;71.08
63881;BME280;50046;46.672;11.152;2022-08-30T00:44:50;98318.88;;;21.54;71.14
63881;BME280;50046;46.672;11.152;2022-08-30T00:45:10;98313.88;;;21.56;71.33
63881;BME280;50046;46.672;11.152;2022-08-30T00:45:26;98313.06;;;21.56;71.13
63881;BME280;50046;46.672;11.152;2022-08-30T00:45:37;98315.03;;;21.55;71.21
63881;BME280;50046;46.672;11.152;2022-08-30T00:45:48;98312.59;;;21.54;71.03
63881;BME280;50046;46.672;11.152;2022-08-30T00:45:59;98315.66;;;21.52;70.96
63881;BME280;50046;46.672;11.152;2022-08-30T00:46:13;98309.22;;;21.48;71.40
63881;BME280;50046;46.672;11.152;2022-08-30T00:46:23;98309.34;;;21.52;71.69
63881;BME280;50046;46.672;11.152;2022-08-30T00:46:34;98312.28;;;21.55;71.50
63881;BME280;50046;46.672;11.152;2022-08-30T00:46:44;98311.44;;;21.55;71.40
63881;BME280;50046;46.672;11.152;2022-08-30T00:46:54;98316.47;;;21.53;71.51
63881;BME280;50046;46.672;11.152;2022-08-30T00:47:05;98312.09;;;21.52;71.42
63881;BME280;50046;46.672;11.152;2022-08-30T00:47:15;98311.78;;;21.53;71.35
63881;BME280;50046;46.672;11.152;2022-08-30T00:47:26;98312.09;;;21.52;71.57
63881;BME280;50046;46.672;11.152;2022-08-30T00:47:36;98313.38;;;21.54;71.22
63881;BME280;50046;46.672;11.152;2022-08-30T00:47:47;98307.91;;;21.54;71.38
63881;BME280;50046;46.672;11.152;2022-08-30T00:47:58;98314.84;;;21.52;71.20
63881;BME280;50046;46.672;11.152;2022-08-30T00:48:09;98317.59;;;21.52;71.25
63881;BME280;50046;46.672;11.152;2022-08-30T00:48:19;98314.06;;;21.51;71.41
63881;BME280;50046;46.672;11.152;2022-08-30T00:48:31;98308.41;;;21.47;71.34
63881;BME280;50046;46.672;11.152;2022-08-30T00:48:44;98311.97;;;21.48;71.62
63881;BME280;50046;46.672;11.152;2022-08-30T00:49:02;98311.47;;;21.46;71.38
63881;BME280;50046;46.672;11.152;2022-08-30T00:49:15;98312.13;;;21.43;71.78
63881;BME280;50046;46.672;11.152;2022-08-30T00:49:27;98318.75;;;21.42;71.68
63881;BME280;50046;46.672;11.152;2022-08-30T00:49:41;98303.41;;;21.41;71.58
63881;BME280;50046;46.672;11.152;2022-08-30T00:49:55;98310.84;;;21.40;71.80
63881;BME280;50046;46.672;11.152;2022-08-30T00:50:08;98309.41;;;21.43;71.68
63881;BME280;50046;46.672;11.152;2022-08-30T00:50:22;98307.44;;;21.43;71.48
63881;BME280;50046;46.672;11.152;2022-08-30T00:50:41;98311.00;;;21.44;71.84
63881;BME280;50046;46.672;11.152;2022-08-30T00:50:56;98310.06;;;21.40;71.48
63881;BME280;50046;46.672;11.152;2022-08-30T00:51:09;98306.16;;;21.41;71.80
63881;BME280;50046;46.672;11.152;2022-08-30T00:51:22;98307.75;;;21.42;71.44
63881;BME280;50046;46.672;11.152;2022-08-30T00:51:33;98316.66;;;21.39;71.55
63881;BME280;50046;46.672;11.152;2022-08-30T00:51:44;98312.28;;;21.38;71.83
63881;BME280;50046;46.672;11.152;2022-08-30T00:51:56;98312.59;;;21.36;72.01
63881;BME280;50046;46.672;11.152;2022-08-30T00:52:07;98307.09;;;21.36;71.85
63881;BME280;50046;46.672;11.152;2022-08-30T00:52:19;98313.91;;;21.39;71.92
63881;BME280;50046;46.672;11.152;2022-08-30T00:52:30;98310.66;;;21.37;72.09
63881;BME280;50046;46.672;11.152;2022-08-30T00:52:43;98306.16;;;21.32;72.08
63881;BME280;50046;46.672;11.152;2022-08-30T00:52:59;98306.78;;;21.29;72.29
63881;BME280;50046;46.672;11.152;2022-08-30T00:53:13;98306.78;;;21.29;72.41
63881;BME280;50046;46.672;11.152;2022-08-30T00:53:28;98305.19;;;21.28;72.15
63881;BME280;50046;46.672;11.152;2022-08-30T00:53:44;98308.09;;;21.32;72.53
63881;BME280;50046;46.672;11.152;2022-08-30T00:53:56;98304.53;;;21.31;72.27
63881;BME280;50046;46.672;11.152;2022-08-30T00:54:07;98309.22;;;21.31;72.33
63881;BME280;50046;46.672;11.152;2022-08-30T00:54:17;98302.59;;;21.32;72.17
63881;BME280;50046;46.672;11.152;2022-08-30T00:54:29;98298.91;;;21.27;72.12
63881;BME280;50046;46.672;11.152;2022-08-30T00:54:43;98299.84;;;21.32;72.30
63881;BME280;50046;46.672;11.152;2022-08-30T00:54:54;98297.44;;;21.30;72.38
63881;BME280;50046;46.672;11.152;2022-08-30T00:55:05;98298.56;;;21.29;72.13
63881;BME280;50046;46.672;11.152;2022-08-30T00:55:17;98309.38;;;21.34;72.42
63881;BME280;50046;46.672;11.152;2022-08-30T00:55:28;98302.94;;;21.30;72.47
63881;BME280;50046;46.672;11.152;2022-08-30T00:55:39;98304.22;;;21.33;72.50
63881;BME280;50046;46.672;11.152;2022-08-30T00:55:51;98302.28;;;21.33;72.44
63881;BME280;50046;46.672;11.152;2022-08-30T00:56:04;98297.94;;;21.32;72.26
63881;BME280;50046;46.672;11.152;2022-08-30T00:56:16;98305.50;;;21.35;72.40
63881;BME280;50046;46.672;11.152;2022-08-30T00:56:27;98305.03;;;21.33;72.07
63881;BME280;50046;46.672;11.152;2022-08-30T00:56:39;98294.03;;;21.33;72.30
63881;BME280;50046;46.672;11.152;2022-08-30T00:56:49;98299.84;;;21.32;72.18
63881;BME280;50046;46.672;11.152;2022-08-30T00:57:01;98293.91;;;21.30;72.19
63881;BME280;50046;46.672;11.152;2022-08-30T00:57:13;98299.69;;;21.28;72.37
63881;BME280;50046;46.672;11.152;2022-08-30T00:57:24;98300.19;;;21.30;72.51
63881;BME280;50046;46.672;11.152;2022-08-30T00:57:35;98304.41;;;21.27;72.13
63881;BME280;50046;46.672;11.152;2022-08-30T00:57:47;98304.41;;;21.27;72.22
63881;BME280;50046;46.672;11.152;2022-08-30T00:58:02;98298.06;;;21.36;71.85
63881;BME280;50046;46.672;11.152;2022-08-30T00:58:17;98299.22;;;21.35;72.22
63881;BME280;50046;46.672;11.152;2022-08-30T00:58:34;98300.69;;;21.32;72.16
63881;BME280;50046;46.672;11.152;2022-08-30T00:58:49;98299.38;;;21.30;72.28
63881;BME280;50046;46.672;11.152;2022-08-30T00:59:03;98302.13;;;21.30;72.49
63881;BME280;50046;46.672;11.152;2022-08-30T00:59:14;98300.81;;;21.36;71.99
63881;BME280;50046;46.672;11.152;2022-08-30T00:59:25;98297.59;;;21.34;72.38
63881;BME280;50046;46.672;11.152;2022-08-30T00:59:36;98298.38;;;21.34;72.00
63881;BME280;50046;46.672;11.152;2022-08-30T00:59:48;98301.63;;;21.36;72.20
63881;BME280;50046;46.672;11.152;2022-08-30T00:59:59;98298.06;;;21.36;72.05
63881;BME280;50046;46.672;11.152;2022-08-30T01:00:10;98301.63;;;21.36;72.35
63881;BME280;50046;46.672;11.152;2022-08-30T01:00:21;98301.13;;;21.34;72.35
63881;BME280;50046;46.672;11.152;2022-08-30T01:00:32;98295.19;;;21.41;72.10
63881;BME280;50046;46.672;11.152;2022-08-30T01:00:43;98294.84;;;21.42;71.58